Anzahl Datensätze: 289
min. Temperatur: 11.3 °C
max. Temperatur: 25.7 °C
max. Windgeschwindigkeit: 27.4 km/h
Niederschlagsumme: 0.0 mm
| Datum |
Zeit |
Temp °C |
Feuchte % |
Taupunkt °C |
Luftdruck hPa |
Wind km/h |
Windrichtung |
Strahlung w/m² |
Niederschlag mm |
|---|---|---|---|---|---|---|---|---|---|
| 09.10.2023 | 00:04 | 12.7 | 89 | 10.9 | 1022.4 | 1.4 | SW | 0 | 0.0 |
| 09.10.2023 | 00:08 | 12.6 | 89 | 10.8 | 1022.4 | 0.0 | SW | 0 | 0.0 |
| 09.10.2023 | 00:14 | 12.6 | 89 | 10.8 | 1022.4 | 0.0 | SW | 0 | 0.0 |
| 09.10.2023 | 00:18 | 12.5 | 89 | 10.7 | 1022.4 | 0.0 | SW | 0 | 0.0 |
| 09.10.2023 | 00:24 | 12.4 | 89 | 10.6 | 1022.4 | 0.0 | SW | 0 | 0.0 |
| 09.10.2023 | 00:28 | 12.4 | 88 | 10.5 | 1022.4 | 0.0 | SW | 0 | 0.0 |
| 09.10.2023 | 00:34 | 12.3 | 88 | 10.4 | 1022.4 | 0.0 | SW | 0 | 0.0 |
| 09.10.2023 | 00:38 | 12.2 | 89 | 10.4 | 1022.4 | 0.0 | SW | 0 | 0.0 |
| 09.10.2023 | 00:44 | 12.3 | 89 | 10.5 | 1022.3 | 0.0 | SW | 0 | 0.0 |
| 09.10.2023 | 00:48 | 12.3 | 89 | 10.5 | 1022.3 | 0.0 | SW | 0 | 0.0 |
| 09.10.2023 | 00:54 | 12.3 | 89 | 10.5 | 1022.2 | 0.0 | SW | 0 | 0.0 |
| 09.10.2023 | 00:58 | 12.2 | 89 | 10.4 | 1022.2 | 0.0 | SW | 0 | 0.0 |
| 09.10.2023 | 01:04 | 11.9 | 90 | 10.3 | 1022.1 | 0.0 | SW | 0 | 0.0 |
| 09.10.2023 | 01:08 | 11.8 | 90 | 10.2 | 1022.1 | 0.0 | SW | 0 | 0.0 |
| 09.10.2023 | 01:14 | 11.6 | 91 | 10.2 | 1022.1 | 1.4 | SW | 0 | 0.0 |
| 09.10.2023 | 01:18 | 11.6 | 91 | 10.2 | 1022.1 | 3.2 | SW | 0 | 0.0 |
| 09.10.2023 | 01:24 | 11.5 | 92 | 10.2 | 1022.0 | 1.4 | SW | 0 | 0.0 |
| 09.10.2023 | 01:28 | 11.6 | 91 | 10.2 | 1021.9 | 1.4 | SW | 0 | 0.0 |
| 09.10.2023 | 01:34 | 11.4 | 91 | 10.0 | 1021.9 | 1.4 | SW | 0 | 0.0 |
| 09.10.2023 | 01:38 | 11.4 | 92 | 10.1 | 1021.8 | 3.2 | SSW | 0 | 0.0 |
| 09.10.2023 | 01:44 | 11.3 | 92 | 10.0 | 1021.8 | 3.2 | S | 0 | 0.0 |
| 09.10.2023 | 01:48 | 11.3 | 92 | 10.0 | 1021.7 | 3.2 | S | 0 | 0.0 |
| 09.10.2023 | 01:54 | 11.3 | 92 | 10.0 | 1021.8 | 3.2 | S | 0 | 0.0 |
| 09.10.2023 | 01:58 | 11.3 | 92 | 10.0 | 1021.8 | 3.2 | SSW | 0 | 0.0 |
| 09.10.2023 | 02:04 | 11.4 | 92 | 10.1 | 1021.8 | 3.2 | SSW | 0 | 0.0 |
| 09.10.2023 | 02:08 | 11.6 | 93 | 10.5 | 1021.7 | 3.2 | SSW | 0 | 0.0 |
| 09.10.2023 | 02:14 | 11.8 | 93 | 10.7 | 1021.8 | 3.2 | SSW | 0 | 0.0 |
| 09.10.2023 | 02:18 | 11.9 | 92 | 10.6 | 1021.7 | 4.7 | SSW | 0 | 0.0 |
| 09.10.2023 | 02:24 | 12.3 | 92 | 11.0 | 1021.7 | 4.7 | SSW | 0 | 0.0 |
| 09.10.2023 | 02:28 | 12.4 | 91 | 11.0 | 1021.7 | 4.7 | SW | 0 | 0.0 |
| 09.10.2023 | 02:34 | 12.6 | 90 | 11.0 | 1021.7 | 3.2 | SSW | 0 | 0.0 |
| 09.10.2023 | 02:38 | 12.6 | 90 | 11.0 | 1021.6 | 4.7 | SSW | 0 | 0.0 |
| 09.10.2023 | 02:44 | 12.7 | 90 | 11.1 | 1021.5 | 4.7 | SW | 0 | 0.0 |
| 09.10.2023 | 02:48 | 12.8 | 90 | 11.2 | 1021.4 | 6.5 | SW | 0 | 0.0 |
| 09.10.2023 | 02:54 | 13.3 | 89 | 11.5 | 1021.4 | 6.5 | SW | 0 | 0.0 |
| 09.10.2023 | 02:58 | 13.5 | 88 | 11.6 | 1021.3 | 6.5 | SW | 0 | 0.0 |
| 09.10.2023 | 03:04 | 13.7 | 87 | 11.6 | 1021.3 | 4.7 | S | 0 | 0.0 |
| 09.10.2023 | 03:08 | 13.8 | 86 | 11.5 | 1021.2 | 4.7 | SSW | 0 | 0.0 |
| 09.10.2023 | 03:14 | 13.8 | 86 | 11.5 | 1021.2 | 4.7 | SSW | 0 | 0.0 |
| 09.10.2023 | 03:18 | 13.8 | 86 | 11.5 | 1021.1 | 4.7 | SW | 0 | 0.0 |
| 09.10.2023 | 03:24 | 13.9 | 85 | 11.4 | 1021.2 | 4.7 | SW | 0 | 0.0 |
| 09.10.2023 | 03:28 | 13.9 | 85 | 11.4 | 1021.1 | 4.7 | SW | 0 | 0.0 |
| 09.10.2023 | 03:34 | 14.1 | 85 | 11.6 | 1021.1 | 4.7 | S | 0 | 0.0 |
| 09.10.2023 | 03:38 | 14.1 | 85 | 11.6 | 1021.0 | 4.7 | SSW | 0 | 0.0 |
| 09.10.2023 | 03:44 | 14.2 | 84 | 11.5 | 1021.1 | 4.7 | SSW | 0 | 0.0 |
| 09.10.2023 | 03:48 | 14.1 | 85 | 11.6 | 1021.0 | 4.7 | SSW | 0 | 0.0 |
| 09.10.2023 | 03:54 | 14.2 | 84 | 11.5 | 1020.9 | 6.5 | SSW | 0 | 0.0 |
| 09.10.2023 | 03:58 | 14.2 | 84 | 11.5 | 1020.9 | 6.5 | SSW | 0 | 0.0 |
| 09.10.2023 | 04:04 | 14.2 | 84 | 11.5 | 1021.0 | 6.5 | SW | 0 | 0.0 |
| 09.10.2023 | 04:08 | 14.2 | 84 | 11.5 | 1021.0 | 4.7 | SSW | 0 | 0.0 |
| 09.10.2023 | 04:14 | 14.2 | 84 | 11.5 | 1021.0 | 4.7 | SSW | 0 | 0.0 |
| 09.10.2023 | 04:18 | 14.1 | 84 | 11.4 | 1021.1 | 4.7 | SW | 0 | 0.0 |
| 09.10.2023 | 04:24 | 13.9 | 84 | 11.2 | 1021.0 | 4.7 | WSW | 0 | 0.0 |
| 09.10.2023 | 04:28 | 13.9 | 84 | 11.2 | 1021.0 | 4.7 | SSW | 0 | 0.0 |
| 09.10.2023 | 04:34 | 13.8 | 85 | 11.3 | 1020.9 | 4.7 | SSW | 0 | 0.0 |
| 09.10.2023 | 04:38 | 13.8 | 85 | 11.3 | 1020.8 | 4.7 | S | 0 | 0.0 |
| 09.10.2023 | 04:44 | 13.7 | 85 | 11.2 | 1020.8 | 4.7 | SSW | 0 | 0.0 |
| 09.10.2023 | 04:48 | 13.8 | 85 | 11.3 | 1020.7 | 6.5 | SSW | 0 | 0.0 |
| 09.10.2023 | 04:54 | 13.8 | 84 | 11.1 | 1020.7 | 6.5 | SSW | 0 | 0.0 |
| 09.10.2023 | 04:58 | 13.7 | 84 | 11.0 | 1020.7 | 6.5 | SSW | 0 | 0.0 |
| 09.10.2023 | 05:04 | 13.6 | 84 | 10.9 | 1020.6 | 6.5 | SW | 0 | 0.0 |
| 09.10.2023 | 05:08 | 13.6 | 85 | 11.1 | 1020.5 | 6.5 | SSW | 0 | 0.0 |
| 09.10.2023 | 05:14 | 13.7 | 84 | 11.0 | 1020.5 | 6.5 | SW | 0 | 0.0 |
| 09.10.2023 | 05:18 | 13.9 | 83 | 11.1 | 1020.5 | 6.5 | SW | 0 | 0.0 |
| 09.10.2023 | 05:24 | 14.4 | 82 | 11.4 | 1020.5 | 6.5 | W | 0 | 0.0 |
| 09.10.2023 | 05:28 | 14.6 | 81 | 11.4 | 1020.6 | 6.5 | W | 0 | 0.0 |
| 09.10.2023 | 05:34 | 14.9 | 80 | 11.5 | 1020.7 | 6.5 | SW | 0 | 0.0 |
| 09.10.2023 | 05:38 | 14.9 | 80 | 11.5 | 1020.6 | 6.5 | SSW | 0 | 0.0 |
| 09.10.2023 | 05:44 | 15.0 | 79 | 11.4 | 1020.6 | 6.5 | WSW | 0 | 0.0 |
| 09.10.2023 | 05:48 | 15.1 | 79 | 11.5 | 1020.6 | 7.9 | SSW | 0 | 0.0 |
| 09.10.2023 | 05:54 | 15.4 | 78 | 11.6 | 1020.6 | 7.9 | SW | 0 | 0.0 |
| 09.10.2023 | 05:56 | 15.4 | 78 | 11.6 | 1020.6 | 7.9 | SW | 0 | 0.0 |
| 09.10.2023 | 05:58 | 15.6 | 78 | 11.8 | 1020.7 | 7.9 | WSW | 0 | 0.0 |
| 09.10.2023 | 06:04 | 15.7 | 77 | 11.7 | 1020.7 | 9.7 | SW | 0 | 0.0 |
| 09.10.2023 | 06:08 | 15.8 | 77 | 11.8 | 1020.7 | 9.7 | WSW | 0 | 0.0 |
| 09.10.2023 | 06:14 | 15.9 | 76 | 11.7 | 1020.8 | 9.7 | W | 0 | 0.0 |
| 09.10.2023 | 06:18 | 15.8 | 76 | 11.6 | 1020.9 | 7.9 | SW | 0 | 0.0 |
| 09.10.2023 | 06:24 | 15.8 | 76 | 11.6 | 1020.8 | 6.5 | WSW | 0 | 0.0 |
| 09.10.2023 | 06:28 | 15.8 | 76 | 11.6 | 1020.8 | 6.5 | W | 0 | 0.0 |
| 09.10.2023 | 06:34 | 15.7 | 76 | 11.5 | 1020.8 | 7.9 | SW | 0 | 0.0 |
| 09.10.2023 | 06:38 | 15.7 | 76 | 11.5 | 1020.8 | 7.9 | SW | 0 | 0.0 |
| 09.10.2023 | 06:44 | 15.6 | 75 | 11.2 | 1020.8 | 7.9 | SSW | 0 | 0.0 |
| 09.10.2023 | 06:48 | 15.5 | 75 | 11.1 | 1020.8 | 7.9 | SSW | 0 | 0.0 |
| 09.10.2023 | 06:54 | 15.4 | 75 | 11.0 | 1020.8 | 7.9 | SSW | 0 | 0.0 |
| 09.10.2023 | 06:58 | 15.4 | 75 | 11.0 | 1020.8 | 9.7 | SSW | 0 | 0.0 |
| 09.10.2023 | 07:04 | 15.6 | 75 | 11.2 | 1020.8 | 9.7 | SSW | 0 | 0.0 |
| 09.10.2023 | 07:08 | 15.4 | 76 | 11.2 | 1020.8 | 9.7 | SW | 0 | 0.0 |
| 09.10.2023 | 07:14 | 15.3 | 76 | 11.1 | 1020.8 | 9.7 | SW | 0 | 0.0 |
| 09.10.2023 | 07:18 | 15.2 | 76 | 11.0 | 1020.7 | 9.7 | SSW | 0 | 0.0 |
| 09.10.2023 | 07:24 | 15.1 | 77 | 11.1 | 1020.8 | 7.9 | SSW | 0 | 0.0 |
| 09.10.2023 | 07:28 | 15.0 | 77 | 11.0 | 1020.7 | 9.7 | SW | 0 | 0.0 |
| 09.10.2023 | 07:34 | 14.9 | 77 | 10.9 | 1020.7 | 11.2 | SSW | 0 | 0.0 |
| 09.10.2023 | 07:38 | 14.9 | 77 | 10.9 | 1020.7 | 11.2 | SSW | 0 | 0.0 |
| 09.10.2023 | 07:44 | 14.8 | 77 | 10.8 | 1020.8 | 9.7 | SW | 7 | 0.0 |
| 09.10.2023 | 07:48 | 14.8 | 77 | 10.8 | 1020.8 | 9.7 | SSW | 9 | 0.0 |
| 09.10.2023 | 07:54 | 14.8 | 77 | 10.8 | 1020.7 | 7.9 | S | 12 | 0.0 |
| 09.10.2023 | 07:58 | 14.9 | 77 | 10.9 | 1020.7 | 9.7 | SSW | 14 | 0.0 |
| 09.10.2023 | 08:04 | 15.0 | 76 | 10.8 | 1020.8 | 7.9 | S | 18 | 0.0 |
| 09.10.2023 | 08:08 | 15.1 | 75 | 10.7 | 1020.9 | 7.9 | SSW | 21 | 0.0 |
| 09.10.2023 | 08:14 | 15.1 | 75 | 10.7 | 1021.2 | 6.5 | SSW | 23 | 0.0 |
| 09.10.2023 | 08:18 | 15.2 | 75 | 10.8 | 1021.2 | 6.5 | SW | 26 | 0.0 |
| 09.10.2023 | 08:24 | 15.1 | 76 | 10.9 | 1021.3 | 6.5 | WSW | 37 | 0.0 |
| 09.10.2023 | 08:28 | 15.1 | 76 | 10.9 | 1021.3 | 6.5 | S | 44 | 0.0 |
| 09.10.2023 | 08:34 | 15.1 | 76 | 10.9 | 1021.4 | 7.9 | SW | 51 | 0.0 |
| 09.10.2023 | 08:38 | 15.2 | 76 | 11.0 | 1021.5 | 7.9 | SW | 60 | 0.0 |
| 09.10.2023 | 08:44 | 15.2 | 76 | 11.0 | 1021.6 | 4.7 | SSW | 70 | 0.0 |
| 09.10.2023 | 08:48 | 15.2 | 76 | 11.0 | 1021.5 | 4.7 | SW | 69 | 0.0 |
| 09.10.2023 | 08:54 | 15.3 | 76 | 11.1 | 1021.5 | 6.5 | S | 63 | 0.0 |
| 09.10.2023 | 08:58 | 15.4 | 76 | 11.2 | 1021.4 | 6.5 | SSW | 76 | 0.0 |
| 09.10.2023 | 09:04 | 15.6 | 75 | 11.2 | 1021.4 | 7.9 | WSW | 83 | 0.0 |
| 09.10.2023 | 09:08 | 15.7 | 75 | 11.3 | 1021.4 | 7.9 | SSW | 83 | 0.0 |
| 09.10.2023 | 09:14 | 15.9 | 75 | 11.5 | 1021.4 | 9.7 | SW | 93 | 0.0 |
| 09.10.2023 | 09:18 | 16.1 | 75 | 11.7 | 1021.5 | 7.9 | SW | 88 | 0.0 |
| 09.10.2023 | 09:24 | 16.3 | 74 | 11.7 | 1021.6 | 7.9 | WSW | 91 | 0.0 |
| 09.10.2023 | 09:28 | 16.3 | 75 | 11.9 | 1021.6 | 6.5 | SSW | 93 | 0.0 |
| 09.10.2023 | 09:34 | 16.6 | 74 | 11.9 | 1021.4 | 7.9 | S | 111 | 0.0 |
| 09.10.2023 | 09:38 | 16.7 | 74 | 12.0 | 1021.5 | 7.9 | SSW | 116 | 0.0 |
| 09.10.2023 | 09:44 | 16.8 | 73 | 11.9 | 1021.6 | 6.5 | SW | 130 | 0.0 |
| 09.10.2023 | 09:48 | 17.0 | 72 | 11.9 | 1021.6 | 6.5 | WSW | 139 | 0.0 |
| 09.10.2023 | 09:54 | 17.2 | 72 | 12.1 | 1021.5 | 7.9 | SSW | 146 | 0.0 |
| 09.10.2023 | 09:58 | 17.3 | 72 | 12.2 | 1021.5 | 9.7 | SSW | 153 | 0.0 |
| 09.10.2023 | 10:04 | 17.5 | 72 | 12.4 | 1021.6 | 9.7 | S | 165 | 0.0 |
| 09.10.2023 | 10:08 | 17.6 | 72 | 12.5 | 1021.6 | 7.9 | SSW | 171 | 0.0 |
| 09.10.2023 | 10:14 | 17.7 | 71 | 12.4 | 1021.6 | 9.7 | SW | 162 | 0.0 |
| 09.10.2023 | 10:18 | 17.8 | 71 | 12.5 | 1021.5 | 9.7 | SW | 163 | 0.0 |
| 09.10.2023 | 10:24 | 17.9 | 71 | 12.6 | 1021.6 | 7.9 | WSW | 176 | 0.0 |
| 09.10.2023 | 10:28 | 18.1 | 71 | 12.8 | 1021.7 | 7.9 | SSW | 179 | 0.0 |
| 09.10.2023 | 10:34 | 18.3 | 70 | 12.7 | 1021.7 | 7.9 | WSW | 206 | 0.0 |
| 09.10.2023 | 10:38 | 18.4 | 69 | 12.6 | 1021.8 | 7.9 | SW | 214 | 0.0 |
| 09.10.2023 | 10:44 | 18.7 | 68 | 12.7 | 1021.8 | 7.9 | SW | 218 | 0.0 |
| 09.10.2023 | 10:48 | 18.8 | 68 | 12.8 | 1021.8 | 7.9 | SSW | 239 | 0.0 |
| 09.10.2023 | 10:54 | 19.0 | 68 | 13.0 | 1021.7 | 6.5 | SSW | 287 | 0.0 |
| 09.10.2023 | 10:58 | 19.2 | 67 | 12.9 | 1021.8 | 6.5 | WSW | 294 | 0.0 |
| 09.10.2023 | 11:04 | 19.6 | 67 | 13.3 | 1021.8 | 7.9 | S | 315 | 0.0 |
| 09.10.2023 | 11:08 | 19.9 | 65 | 13.1 | 1021.8 | 9.7 | WSW | 320 | 0.0 |
| 09.10.2023 | 11:14 | 20.1 | 64 | 13.1 | 1021.7 | 9.7 | SW | 309 | 0.0 |
| 09.10.2023 | 11:18 | 20.3 | 64 | 13.3 | 1021.7 | 9.7 | S | 295 | 0.0 |
| 09.10.2023 | 11:24 | 20.3 | 64 | 13.3 | 1021.7 | 9.7 | SW | 304 | 0.0 |
| 09.10.2023 | 11:28 | 20.4 | 64 | 13.4 | 1021.7 | 9.7 | S | 309 | 0.0 |
| 09.10.2023 | 11:34 | 20.8 | 65 | 14.0 | 1021.8 | 9.7 | SSW | 313 | 0.0 |
| 09.10.2023 | 11:38 | 20.8 | 63 | 13.5 | 1021.8 | 7.9 | S | 308 | 0.0 |
| 09.10.2023 | 11:44 | 21.1 | 64 | 14.0 | 1021.9 | 6.5 | SW | 320 | 0.0 |
| 09.10.2023 | 11:48 | 21.2 | 63 | 13.9 | 1021.9 | 6.5 | WSW | 287 | 0.0 |
| 09.10.2023 | 11:54 | 21.3 | 62 | 13.7 | 1021.9 | 7.9 | SSW | 378 | 0.0 |
| 09.10.2023 | 11:58 | 21.4 | 62 | 13.8 | 1021.9 | 9.7 | SW | 269 | 0.0 |
| 09.10.2023 | 12:04 | 21.3 | 63 | 14.0 | 1021.8 | 9.7 | SW | 176 | 0.0 |
| 09.10.2023 | 12:08 | 20.9 | 63 | 13.6 | 1021.8 | 9.7 | SSW | 193 | 0.0 |
| 09.10.2023 | 12:14 | 20.9 | 64 | 13.8 | 1021.9 | 9.7 | SSW | 251 | 0.0 |
| 09.10.2023 | 12:18 | 21.1 | 64 | 14.0 | 1021.8 | 7.9 | W | 315 | 0.0 |
| 09.10.2023 | 12:24 | 21.9 | 63 | 14.5 | 1021.8 | 6.5 | SSW | 740 | 0.0 |
| 09.10.2023 | 12:28 | 22.4 | 61 | 14.5 | 1021.7 | 7.9 | WNW | 392 | 0.0 |
| 09.10.2023 | 12:34 | 22.2 | 61 | 14.3 | 1021.6 | 11.2 | SSW | 265 | 0.0 |
| 09.10.2023 | 12:38 | 21.9 | 61 | 14.0 | 1021.5 | 13.0 | W | 183 | 0.0 |
| 09.10.2023 | 12:44 | 21.8 | 62 | 14.2 | 1021.4 | 9.7 | SSW | 139 | 0.0 |
| 09.10.2023 | 12:48 | 21.6 | 62 | 14.0 | 1021.4 | 9.7 | SSW | 111 | 0.0 |
| 09.10.2023 | 12:54 | 21.3 | 63 | 14.0 | 1021.5 | 11.2 | SSW | 104 | 0.0 |
| 09.10.2023 | 12:58 | 21.3 | 63 | 14.0 | 1021.4 | 9.7 | SW | 100 | 0.0 |
| 09.10.2023 | 13:04 | 21.2 | 64 | 14.1 | 1021.6 | 7.9 | SW | 88 | 0.0 |
| 09.10.2023 | 13:08 | 21.2 | 64 | 14.1 | 1021.7 | 4.7 | SW | 83 | 0.0 |
| 09.10.2023 | 13:14 | 21.2 | 65 | 14.4 | 1021.7 | 3.2 | SW | 130 | 0.0 |
| 09.10.2023 | 13:18 | 21.2 | 65 | 14.4 | 1021.6 | 3.2 | SSW | 169 | 0.0 |
| 09.10.2023 | 13:24 | 21.4 | 64 | 14.3 | 1021.5 | 4.7 | W | 190 | 0.0 |
| 09.10.2023 | 13:28 | 21.6 | 64 | 14.5 | 1021.5 | 4.7 | SW | 225 | 0.0 |
| 09.10.2023 | 13:34 | 21.9 | 64 | 14.8 | 1021.3 | 6.5 | WSW | 322 | 0.0 |
| 09.10.2023 | 13:38 | 22.3 | 63 | 14.9 | 1021.2 | 7.9 | SW | 327 | 0.0 |
| 09.10.2023 | 13:44 | 22.4 | 62 | 14.8 | 1021.1 | 9.7 | SW | 332 | 0.0 |
| 09.10.2023 | 13:48 | 22.6 | 62 | 14.9 | 1021.0 | 7.9 | W | 429 | 0.0 |
| 09.10.2023 | 13:54 | 23.2 | 62 | 15.5 | 1021.1 | 7.9 | SSW | 501 | 0.0 |
| 09.10.2023 | 13:58 | 23.6 | 60 | 15.4 | 1021.0 | 7.9 | WSW | 592 | 0.0 |
| 09.10.2023 | 14:04 | 23.4 | 60 | 15.2 | 1021.0 | 6.5 | SSW | 359 | 0.0 |
| 09.10.2023 | 14:08 | 23.2 | 60 | 15.0 | 1021.0 | 6.5 | NW | 285 | 0.0 |
| 09.10.2023 | 14:14 | 23.3 | 60 | 15.1 | 1021.0 | 7.9 | SSW | 366 | 0.0 |
| 09.10.2023 | 14:18 | 23.4 | 60 | 15.2 | 1020.9 | 9.7 | SW | 315 | 0.0 |
| 09.10.2023 | 14:24 | 23.2 | 60 | 15.0 | 1020.8 | 9.7 | SW | 267 | 0.0 |
| 09.10.2023 | 14:28 | 23.4 | 60 | 15.2 | 1020.7 | 9.7 | WSW | 468 | 0.0 |
| 09.10.2023 | 14:34 | 23.9 | 59 | 15.4 | 1020.5 | 9.7 | SW | 362 | 0.0 |
| 09.10.2023 | 14:38 | 23.8 | 59 | 15.3 | 1020.5 | 9.7 | S | 251 | 0.0 |
| 09.10.2023 | 14:44 | 23.9 | 59 | 15.4 | 1020.5 | 9.7 | SW | 464 | 0.0 |
| 09.10.2023 | 14:48 | 24.3 | 58 | 15.5 | 1020.4 | 9.7 | SSW | 390 | 0.0 |
| 09.10.2023 | 14:54 | 24.2 | 56 | 14.9 | 1020.4 | 7.9 | SSO | 387 | 0.0 |
| 09.10.2023 | 14:58 | 24.2 | 56 | 14.9 | 1020.4 | 9.7 | S | 339 | 0.0 |
| 09.10.2023 | 15:04 | 24.2 | 57 | 15.1 | 1020.3 | 7.9 | WSW | 431 | 0.0 |
| 09.10.2023 | 15:08 | 24.6 | 54 | 14.7 | 1020.4 | 9.7 | SW | 364 | 0.0 |
| 09.10.2023 | 15:14 | 24.6 | 55 | 15.0 | 1020.3 | 11.2 | SW | 445 | 0.0 |
| 09.10.2023 | 15:18 | 24.8 | 54 | 14.9 | 1020.2 | 11.2 | SSW | 431 | 0.0 |
| 09.10.2023 | 15:24 | 25.1 | 54 | 15.1 | 1020.1 | 9.7 | SSW | 432 | 0.0 |
| 09.10.2023 | 15:28 | 25.3 | 54 | 15.3 | 1020.1 | 7.9 | WSW | 475 | 0.0 |
| 09.10.2023 | 15:34 | 25.6 | 53 | 15.3 | 1020.0 | 9.7 | SW | 462 | 0.0 |
| 09.10.2023 | 15:38 | 25.4 | 53 | 15.1 | 1019.9 | 9.7 | W | 473 | 0.0 |
| 09.10.2023 | 15:44 | 25.3 | 53 | 15.0 | 1019.9 | 7.9 | SW | 373 | 0.0 |
| 09.10.2023 | 15:48 | 25.3 | 53 | 15.0 | 1019.9 | 6.5 | S | 262 | 0.0 |
| 09.10.2023 | 15:54 | 25.2 | 54 | 15.2 | 1019.9 | 6.5 | WSW | 346 | 0.0 |
| 09.10.2023 | 15:58 | 25.3 | 53 | 15.0 | 1019.9 | 6.5 | W | 346 | 0.0 |
| 09.10.2023 | 16:04 | 25.4 | 53 | 15.1 | 1019.9 | 7.9 | WSW | 251 | 0.0 |
| 09.10.2023 | 16:08 | 25.3 | 53 | 15.0 | 1019.8 | 6.5 | WSW | 267 | 0.0 |
| 09.10.2023 | 16:14 | 25.6 | 53 | 15.3 | 1019.7 | 6.5 | WSW | 308 | 0.0 |
| 09.10.2023 | 16:18 | 25.6 | 51 | 14.7 | 1019.7 | 7.9 | S | 274 | 0.0 |
| 09.10.2023 | 16:24 | 25.5 | 51 | 14.6 | 1019.7 | 11.2 | SW | 229 | 0.0 |
| 09.10.2023 | 16:28 | 25.3 | 51 | 14.4 | 1019.6 | 11.2 | WSW | 188 | 0.0 |
| 09.10.2023 | 16:34 | 25.2 | 52 | 14.6 | 1019.7 | 7.9 | WSW | 221 | 0.0 |
| 09.10.2023 | 16:38 | 25.3 | 53 | 15.0 | 1019.6 | 4.7 | SW | 311 | 0.0 |
| 09.10.2023 | 16:44 | 25.7 | 53 | 15.4 | 1019.5 | 6.5 | SW | 279 | 0.0 |
| 09.10.2023 | 16:48 | 25.6 | 53 | 15.3 | 1019.5 | 6.5 | S | 142 | 0.0 |
| 09.10.2023 | 16:54 | 25.3 | 53 | 15.0 | 1019.6 | 7.9 | SW | 262 | 0.0 |
| 09.10.2023 | 16:58 | 25.3 | 53 | 15.0 | 1019.4 | 7.9 | WSW | 227 | 0.0 |
| 09.10.2023 | 17:04 | 25.2 | 53 | 14.9 | 1019.5 | 7.9 | W | 121 | 0.0 |
| 09.10.2023 | 17:08 | 25.1 | 54 | 15.1 | 1019.5 | 6.5 | SSW | 102 | 0.0 |
| 09.10.2023 | 17:14 | 24.8 | 54 | 14.9 | 1019.5 | 4.7 | WSW | 102 | 0.0 |
| 09.10.2023 | 17:18 | 24.8 | 54 | 14.9 | 1019.6 | 6.5 | SSW | 91 | 0.0 |
| 09.10.2023 | 17:24 | 24.6 | 56 | 15.2 | 1019.5 | 6.5 | SSW | 77 | 0.0 |
| 09.10.2023 | 17:28 | 24.4 | 56 | 15.1 | 1019.5 | 6.5 | SW | 70 | 0.0 |
| 09.10.2023 | 17:34 | 24.2 | 57 | 15.1 | 1019.7 | 3.2 | SW | 72 | 0.0 |
| 09.10.2023 | 17:38 | 24.0 | 58 | 15.2 | 1019.7 | 1.4 | SW | 77 | 0.0 |
| 09.10.2023 | 17:44 | 23.8 | 59 | 15.3 | 1019.7 | 0.0 | SW | 69 | 0.0 |
| 09.10.2023 | 17:48 | 23.8 | 58 | 15.0 | 1019.6 | 0.0 | SW | 56 | 0.0 |
| 09.10.2023 | 17:54 | 23.7 | 59 | 15.2 | 1019.5 | 1.4 | SSO | 44 | 0.0 |
| 09.10.2023 | 17:58 | 23.4 | 60 | 15.2 | 1019.6 | 1.4 | SSO | 40 | 0.0 |
| 09.10.2023 | 18:04 | 22.9 | 63 | 15.5 | 1019.6 | 0.0 | SSW | 39 | 0.0 |
| 09.10.2023 | 18:08 | 22.7 | 63 | 15.3 | 1019.6 | 1.4 | SSW | 37 | 0.0 |
| 09.10.2023 | 18:14 | 22.4 | 63 | 15.0 | 1019.6 | 3.2 | SSW | 30 | 0.0 |
| 09.10.2023 | 18:18 | 22.3 | 63 | 14.9 | 1019.6 | 3.2 | SSW | 26 | 0.0 |
| 09.10.2023 | 18:24 | 22.2 | 64 | 15.1 | 1019.5 | 3.2 | S | 19 | 0.0 |
| 09.10.2023 | 18:28 | 22.1 | 64 | 15.0 | 1019.6 | 3.2 | SW | 16 | 0.0 |
| 09.10.2023 | 18:34 | 21.8 | 65 | 14.9 | 1019.6 | 3.2 | SSW | 12 | 0.0 |
| 09.10.2023 | 18:38 | 21.6 | 66 | 15.0 | 1019.6 | 3.2 | SSW | 9 | 0.0 |
| 09.10.2023 | 18:44 | 21.3 | 67 | 14.9 | 1019.7 | 4.7 | SW | 5 | 0.0 |
| 09.10.2023 | 18:48 | 21.1 | 68 | 15.0 | 1019.7 | 4.7 | SSW | 0 | 0.0 |
| 09.10.2023 | 18:54 | 20.7 | 69 | 14.8 | 1019.7 | 3.2 | SW | 0 | 0.0 |
| 09.10.2023 | 18:58 | 20.4 | 70 | 14.7 | 1019.7 | 3.2 | SSW | 0 | 0.0 |
| 09.10.2023 | 19:04 | 20.4 | 70 | 14.7 | 1019.8 | 3.2 | SW | 0 | 0.0 |
| 09.10.2023 | 19:08 | 20.3 | 70 | 14.6 | 1019.9 | 3.2 | SW | 0 | 0.0 |
| 09.10.2023 | 19:14 | 20.1 | 71 | 14.7 | 1019.9 | 1.4 | SW | 0 | 0.0 |
| 09.10.2023 | 19:18 | 19.9 | 72 | 14.7 | 1020.0 | 1.4 | WSW | 0 | 0.0 |
| 09.10.2023 | 19:24 | 19.7 | 72 | 14.5 | 1020.1 | 1.4 | W | 0 | 0.0 |
| 09.10.2023 | 19:28 | 19.8 | 72 | 14.6 | 1020.0 | 1.4 | W | 0 | 0.0 |
| 09.10.2023 | 19:34 | 19.7 | 72 | 14.5 | 1020.0 | 3.2 | WSW | 0 | 0.0 |
| 09.10.2023 | 19:38 | 19.6 | 73 | 14.6 | 1019.9 | 3.2 | SW | 0 | 0.0 |
| 09.10.2023 | 19:44 | 19.3 | 73 | 14.3 | 1019.9 | 3.2 | SW | 0 | 0.0 |
| 09.10.2023 | 19:48 | 19.2 | 74 | 14.5 | 1019.9 | 3.2 | SW | 0 | 0.0 |
| 09.10.2023 | 19:54 | 18.8 | 75 | 14.3 | 1020.0 | 3.2 | W | 0 | 0.0 |
| 09.10.2023 | 19:58 | 18.9 | 75 | 14.4 | 1020.0 | 3.2 | WSW | 0 | 0.0 |
| 09.10.2023 | 20:04 | 19.0 | 75 | 14.5 | 1020.0 | 3.2 | WSW | 0 | 0.0 |
| 09.10.2023 | 20:08 | 18.8 | 75 | 14.3 | 1019.9 | 1.4 | WSW | 0 | 0.0 |
| 09.10.2023 | 20:14 | 18.7 | 75 | 14.2 | 1019.8 | 1.4 | SW | 0 | 0.0 |
| 09.10.2023 | 20:18 | 18.7 | 76 | 14.4 | 1019.9 | 3.2 | SW | 0 | 0.0 |
| 09.10.2023 | 20:24 | 18.7 | 76 | 14.4 | 1019.9 | 3.2 | WSW | 0 | 0.0 |
| 09.10.2023 | 20:28 | 18.6 | 75 | 14.1 | 1019.8 | 3.2 | SW | 0 | 0.0 |
| 09.10.2023 | 20:34 | 18.8 | 74 | 14.1 | 1019.8 | 3.2 | SW | 0 | 0.0 |
| 09.10.2023 | 20:38 | 19.0 | 72 | 13.8 | 1019.8 | 3.2 | WSW | 0 | 0.0 |
| 09.10.2023 | 20:44 | 19.3 | 70 | 13.7 | 1019.9 | 3.2 | WSW | 0 | 0.0 |
| 09.10.2023 | 20:48 | 19.4 | 70 | 13.8 | 1019.9 | 3.2 | WSW | 0 | 0.0 |
| 09.10.2023 | 20:54 | 19.6 | 69 | 13.8 | 1020.0 | 3.2 | SW | 0 | 0.0 |
| 09.10.2023 | 20:58 | 19.6 | 69 | 13.8 | 1020.0 | 3.2 | WSW | 0 | 0.0 |
| 09.10.2023 | 21:04 | 19.5 | 69 | 13.7 | 1020.0 | 4.7 | SW | 0 | 0.0 |
| 09.10.2023 | 21:08 | 19.4 | 69 | 13.6 | 1019.9 | 4.7 | SW | 0 | 0.0 |
| 09.10.2023 | 21:14 | 19.3 | 69 | 13.5 | 1019.9 | 4.7 | WSW | 0 | 0.0 |
| 09.10.2023 | 21:18 | 19.2 | 69 | 13.4 | 1019.9 | 4.7 | SW | 0 | 0.0 |
| 09.10.2023 | 21:24 | 18.8 | 70 | 13.2 | 1020.0 | 3.2 | W | 0 | 0.0 |
| 09.10.2023 | 21:28 | 18.6 | 71 | 13.2 | 1020.0 | 3.2 | WSW | 0 | 0.0 |
| 09.10.2023 | 21:34 | 18.3 | 71 | 13.0 | 1020.0 | 3.2 | WSW | 0 | 0.0 |
| 09.10.2023 | 21:38 | 18.3 | 71 | 13.0 | 1020.1 | 3.2 | WSW | 0 | 0.0 |
| 09.10.2023 | 21:44 | 18.4 | 70 | 12.8 | 1020.2 | 3.2 | W | 0 | 0.0 |
| 09.10.2023 | 21:48 | 18.4 | 70 | 12.8 | 1020.3 | 3.2 | WSW | 0 | 0.0 |
| 09.10.2023 | 21:54 | 18.3 | 70 | 12.7 | 1020.2 | 3.2 | WSW | 0 | 0.0 |
| 09.10.2023 | 21:58 | 18.3 | 70 | 12.7 | 1020.2 | 3.2 | WSW | 0 | 0.0 |
| 09.10.2023 | 22:04 | 18.1 | 71 | 12.8 | 1020.3 | 3.2 | W | 0 | 0.0 |
| 09.10.2023 | 22:08 | 17.9 | 71 | 12.6 | 1020.3 | 3.2 | W | 0 | 0.0 |
| 09.10.2023 | 22:14 | 18.0 | 70 | 12.4 | 1020.3 | 4.7 | W | 0 | 0.0 |
| 09.10.2023 | 22:18 | 18.2 | 69 | 12.4 | 1020.3 | 4.7 | SW | 0 | 0.0 |
| 09.10.2023 | 22:24 | 18.0 | 70 | 12.4 | 1020.3 | 4.7 | WSW | 0 | 0.0 |
| 09.10.2023 | 22:28 | 17.9 | 70 | 12.4 | 1020.4 | 4.7 | WSW | 0 | 0.0 |
| 09.10.2023 | 22:34 | 17.8 | 70 | 12.3 | 1020.5 | 4.7 | WSW | 0 | 0.0 |
| 09.10.2023 | 22:38 | 17.7 | 70 | 12.2 | 1020.5 | 4.7 | W | 0 | 0.0 |
| 09.10.2023 | 22:44 | 17.7 | 69 | 11.9 | 1020.4 | 4.7 | WSW | 0 | 0.0 |
| 09.10.2023 | 22:48 | 17.7 | 69 | 11.9 | 1020.4 | 4.7 | W | 0 | 0.0 |
| 09.10.2023 | 22:54 | 17.7 | 68 | 11.7 | 1020.5 | 4.7 | WSW | 0 | 0.0 |
| 09.10.2023 | 22:58 | 17.6 | 69 | 11.8 | 1020.6 | 4.7 | WSW | 0 | 0.0 |
| 09.10.2023 | 23:04 | 17.5 | 69 | 11.7 | 1020.6 | 4.7 | WSW | 0 | 0.0 |
| 09.10.2023 | 23:08 | 17.4 | 70 | 11.9 | 1020.6 | 4.7 | WSW | 0 | 0.0 |
| 09.10.2023 | 23:14 | 17.3 | 71 | 12.0 | 1020.7 | 4.7 | SW | 0 | 0.0 |
| 09.10.2023 | 23:18 | 17.1 | 71 | 11.8 | 1020.7 | 3.2 | SW | 0 | 0.0 |
| 09.10.2023 | 23:24 | 16.6 | 73 | 11.7 | 1020.8 | 1.4 | SW | 0 | 0.0 |
| 09.10.2023 | 23:28 | 16.2 | 75 | 11.8 | 1020.8 | 1.4 | SW | 0 | 0.0 |
| 09.10.2023 | 23:34 | 15.7 | 77 | 11.7 | 1020.8 | 1.4 | ONO | 0 | 0.0 |
| 09.10.2023 | 23:38 | 15.5 | 80 | 12.1 | 1020.9 | 1.4 | ONO | 0 | 0.0 |
| 09.10.2023 | 23:44 | 15.2 | 80 | 11.8 | 1020.9 | 0.0 | ONO | 0 | 0.0 |
| 09.10.2023 | 23:48 | 14.9 | 81 | 11.7 | 1021.0 | 0.0 | ONO | 0 | 0.0 |
| 09.10.2023 | 23:54 | 14.7 | 82 | 11.7 | 1021.0 | 0.0 | ONO | 0 | 0.0 |
| 09.10.2023 | 23:58 | 14.8 | 82 | 11.8 | 1021.1 | 0.0 | ONO | 0 | 0.0 |